Date,TemperatureHighF,TemperatureAvgF,TemperatureLowF,DewpointHighF,DewpointAvgF,DewpointLowF,HumidityHigh,HumidityAvg,HumidityLow,PressureMaxIn,PressureMinIn,WindSpeedMaxMPH,WindSpeedAvgMPH,GustSpeedMaxMPH,PrecipitationSumIn
2014-1-1,0.0,0.0,0.0,-0.1,-0.1,-0.1,0,0,100,30.18,30.10,0,0,0,0.00
2014-1-2,0.0,0.0,0.0,-0.1,-0.1,-0.1,0,0,100,30.40,30.10,0,0,0,0.00
2014-1-3,0.0,0.0,0.0,-0.1,-0.1,-0.1,0,0,100,30.39,29.86,0,0,0,0.00
2014-1-4,0.0,0.0,0.0,-0.1,-0.1,-0.1,0,0,100,29.97,29.81,0,0,0,0.00
2014-1-5,0.0,0.0,0.0,-0.1,-0.1,-0.1,0,0,100,30.17,29.94,0,0,0,0.00
2014-1-6,0.0,0.0,0.0,-0.1,-0.1,-0.1,0,0,100,30.29,30.16,0,0,0,0.00
2014-1-7,0.0,0.0,0.0,-0.1,-0.1,-0.1,0,0,100,30.28,30.14,0,0,0,0.00
2014-1-8,0.0,0.0,0.0,-0.1,-0.1,-0.1,0,0,100,30.43,30.18,0,0,0,0.00
2014-1-9,0.0,0.0,0.0,-0.1,-0.1,-0.1,0,0,100,30.43,30.08,0,0,0,0.00
2014-1-10,0.0,0.0,0.0,-0.1,-0.1,-0.1,0,0,100,30.08,29.47,0,0,0,0.00
2014-1-11,0.0,0.0,0.0,-0.1,-0.1,-0.1,0,0,100,29.83,29.43,0,0,0,0.00
2014-1-12,0.0,0.0,0.0,-0.1,-0.1,-0.1,0,0,100,29.85,29.56,0,0,0,0.00
2014-1-13,0.0,0.0,0.0,-0.1,-0.1,-0.1,0,0,100,29.79,29.53,0,0,0,0.00
2014-1-14,0.0,0.0,0.0,-0.1,-0.1,-0.1,0,0,100,29.95,29.62,0,0,0,0.00
2014-1-15,0.0,0.0,0.0,-0.1,-0.1,-0.1,0,0,100,30.11,29.82,0,0,0,0.00
2014-1-16,0.0,0.0,0.0,-0.1,-0.1,-0.1,0,0,100,29.82,29.51,0,0,0,0.00
2014-1-17,0.0,0.0,0.0,-0.1,-0.1,-0.1,0,0,100,29.99,29.75,0,0,0,0.00
2014-1-18,0.0,0.0,0.0,-0.1,-0.1,-0.1,0,0,100,29.93,29.57,0,0,0,0.00
2014-1-19,0.0,0.0,0.0,-0.1,-0.1,-0.1,0,0,100,29.90,29.59,0,0,0,0.00
2014-1-20,0.0,0.0,0.0,-0.1,-0.1,-0.1,0,0,100,30.00,29.65,0,0,0,0.00
2014-1-21,0.0,0.0,0.0,-0.1,-0.1,-0.1,0,0,100,30.32,30.00,0,0,0,0.00
2014-1-22,0.0,0.0,0.0,-0.1,-0.1,-0.1,0,0,100,30.25,29.89,0,0,0,0.00
2014-1-23,0.0,0.0,0.0,-0.1,-0.1,-0.1,0,0,100,30.61,30.25,0,0,0,0.00
2014-1-24,0.0,0.0,0.0,-0.1,-0.1,-0.1,0,0,100,30.52,29.51,0,0,0,0.00
2014-1-25,0.0,0.0,0.0,-0.1,-0.1,-0.1,0,0,100,29.90,29.47,0,0,0,0.00
2014-1-26,0.0,0.0,0.0,-0.1,-0.1,-0.1,0,0,100,29.96,29.41,0,0,0,0.00
2014-1-27,0.0,0.0,0.0,-0.1,-0.1,-0.1,0,0,100,30.41,29.96,0,0,0,0.00
2014-1-28,0.0,0.0,0.0,-0.1,-0.1,-0.1,0,0,100,30.41,30.21,0,0,0,0.00
2014-1-29,0.0,0.0,0.0,-0.1,-0.1,-0.1,0,0,100,30.22,29.94,0,0,0,0.00
2014-1-30,0.0,0.0,0.0,-0.1,-0.1,-0.1,0,0,100,29.95,29.62,0,0,0,0.00
2014-1-31,0.0,0.0,0.0,-0.1,-0.1,-0.1,0,0,100,30.13,29.93,0,0,0,0.00
2014-2-1,0.0,0.0,0.0,-0.1,-0.1,-0.1,0,0,100,30.08,29.78,0,0,0,0.00
2014-2-2,0.0,0.0,0.0,-0.1,-0.1,-0.1,0,0,100,30.28,30.08,0,0,0,0.00
2014-2-3,0.0,0.0,0.0,-0.1,-0.1,-0.1,0,0,100,30.34,30.25,0,0,0,0.00
2014-2-4,0.0,0.0,0.0,-0.1,-0.1,-0.1,0,0,100,30.32,30.28,0,0,0,0.00